createdAt,value
2019-01-25T00:01:07.284Z,24.07
2019-01-25T00:05:06.997Z,24.33
2019-01-25T00:09:07.440Z,25.73
2019-01-25T00:13:05.881Z,25.77
2019-01-25T00:17:04.888Z,24.67
2019-01-25T00:21:04.502Z,25.43
2019-01-25T00:25:03.215Z,26.43
2019-01-25T00:29:02.148Z,25.77
2019-01-25T00:33:00.844Z,26.27
2019-01-25T00:36:59.414Z,25.27
2019-01-25T00:40:58.239Z,23.13
2019-01-25T00:44:57.239Z,26.97
2019-01-25T00:48:56.589Z,24.13
2019-01-25T00:52:55.554Z,25.63
2019-01-25T00:56:53.993Z,25.90
2019-01-25T01:00:54.174Z,24.63
2019-01-25T01:04:55.021Z,23.97
2019-01-25T01:08:53.485Z,24.60
2019-01-25T01:12:52.413Z,24.43
2019-01-25T01:16:51.104Z,25.17
2019-01-25T01:20:50.313Z,24.27
2019-01-25T01:24:48.905Z,24.80
2019-01-25T01:28:50.263Z,24.97
2019-01-25T01:32:48.964Z,25.33
2019-01-25T01:36:47.659Z,24.67
2019-01-25T01:40:47.641Z,26.17
2019-01-25T01:44:46.280Z,25.13
2019-01-25T01:48:45.857Z,24.60
2019-01-25T01:52:44.781Z,24.17
2019-01-25T01:56:43.596Z,23.80
2019-01-25T02:00:42.037Z,23.80
2019-01-25T02:04:40.682Z,22.67
2019-01-25T02:08:40.785Z,23.97
2019-01-25T02:12:39.321Z,24.87
2019-01-25T02:16:37.999Z,25.40
2019-01-25T02:20:36.693Z,24.43
2019-01-25T02:24:35.049Z,24.73
2019-01-25T02:28:35.498Z,24.70
2019-01-25T02:32:38.000Z,24.53
2019-01-25T02:36:34.254Z,25.13
2019-01-25T02:40:38.615Z,24.73
2019-01-25T02:44:32.865Z,24.77
2019-01-25T02:48:31.456Z,24.50
2019-01-25T02:52:29.889Z,24.20
2019-01-25T02:56:28.643Z,27.13
2019-01-25T03:00:29.183Z,26.03
2019-01-25T03:04:27.625Z,28.90
2019-01-25T03:08:26.268Z,26.37
2019-01-25T03:12:24.966Z,28.20
2019-01-25T03:16:23.658Z,28.67
2019-01-25T03:20:24.201Z,29.67
2019-01-25T03:24:22.893Z,30.60
2019-01-25T03:28:21.340Z,33.03
2019-01-25T03:32:19.966Z,31.33
2019-01-25T03:36:18.555Z,30.27
2019-01-25T03:40:20.019Z,29.60
2019-01-25T03:44:18.835Z,28.80
2019-01-25T03:48:17.327Z,31.03
2019-01-25T03:52:16.231Z,30.33
2019-01-25T03:56:14.622Z,31.50
2019-01-25T04:00:16.384Z,32.40
2019-01-25T04:04:14.967Z,32.30
2019-01-25T04:08:13.391Z,30.13
2019-01-25T04:12:12.474Z,32.23
2019-01-25T04:16:11.168Z,31.73
2019-01-25T04:20:14.076Z,32.23
2019-01-25T04:24:14.682Z,30.53
2019-01-25T04:28:13.397Z,31.63
2019-01-25T04:32:12.094Z,34.00
2019-01-25T04:36:10.794Z,32.27
2019-01-25T04:40:12.851Z,33.60
2019-01-25T04:44:12.874Z,32.27
2019-01-25T04:48:32.995Z,31.90
2019-01-25T04:52:31.690Z,34.90
2019-01-25T04:56:32.547Z,35.80
2019-01-25T05:00:31.011Z,32.83
2019-01-25T05:04:31.072Z,33.80
2019-01-25T05:08:29.602Z,34.77
2019-01-25T05:12:28.192Z,33.13
2019-01-25T05:16:26.704Z,34.20
2019-01-25T05:20:25.178Z,33.50
2019-01-25T05:24:25.605Z,34.70
2019-01-25T05:28:25.375Z,36.07
2019-01-25T05:32:23.726Z,36.47
2019-01-25T05:36:22.153Z,36.10
2019-01-25T05:40:23.478Z,36.93
2019-01-25T05:44:21.901Z,35.97
2019-01-25T05:48:20.669Z,33.57
2019-01-25T05:52:20.341Z,38.13
2019-01-25T05:56:18.844Z,37.73
2019-01-25T06:00:28.086Z,36.67
2019-01-25T06:04:34.371Z,38.80
2019-01-25T06:08:33.944Z,35.73
2019-01-25T06:12:32.307Z,34.93
2019-01-25T06:16:31.201Z,29.90
2019-01-25T06:20:29.620Z,37.33
2019-01-25T06:24:28.061Z,35.07
2019-01-25T06:28:26.481Z,35.97
2019-01-25T06:32:24.990Z,35.13
2019-01-25T06:36:23.823Z,32.37
2019-01-25T06:40:22.322Z,35.27
2019-01-25T06:44:20.830Z,35.37
2019-01-25T06:48:19.303Z,34.73
2019-01-25T06:52:17.730Z,36.10
2019-01-25T06:56:16.118Z,33.57
2019-01-25T07:00:18.104Z,32.63
2019-01-25T07:04:16.884Z,29.27
2019-01-25T07:08:17.016Z,33.30
2019-01-25T07:12:15.409Z,30.83
2019-01-25T07:16:14.201Z,30.60
2019-01-25T07:20:14.809Z,28.83
2019-01-25T07:24:13.277Z,27.67
2019-01-25T07:28:11.692Z,32.67
2019-01-25T07:32:10.117Z,31.27
2019-01-25T07:36:09.145Z,30.93
2019-01-25T07:40:09.569Z,29.43
2019-01-25T07:44:07.988Z,30.17
2019-01-25T07:48:06.787Z,29.13
2019-01-25T07:52:06.852Z,30.90
2019-01-25T07:56:06.137Z,32.27
2019-01-25T08:00:08.082Z,31.70
2019-01-25T08:04:06.513Z,31.87
2019-01-25T08:08:04.949Z,33.53
2019-01-25T08:12:07.688Z,33.97
2019-01-25T08:16:03.496Z,32.30
2019-01-25T08:20:02.352Z,34.57
2019-01-25T08:24:00.936Z,35.23
2019-01-25T08:27:59.450Z,35.03
2019-01-25T08:31:57.858Z,32.40
2019-01-25T08:35:56.346Z,33.93
2019-01-25T08:39:54.740Z,32.90
2019-01-25T08:43:59.077Z,34.13
2019-01-25T08:47:59.414Z,32.97
2019-01-25T08:51:57.953Z,33.90
2019-01-25T08:55:56.332Z,31.77
2019-01-25T08:59:54.767Z,30.87
2019-01-25T09:03:53.211Z,34.67
2019-01-25T09:07:51.595Z,28.67
2019-01-25T09:11:50.100Z,31.17
2019-01-25T09:15:48.884Z,31.50
2019-01-25T09:19:47.356Z,31.73
2019-01-25T09:23:46.020Z,30.47
2019-01-25T09:27:45.023Z,30.33
2019-01-25T09:31:43.475Z,32.60
2019-01-25T09:35:41.896Z,33.13
2019-01-25T09:39:40.655Z,34.67
2019-01-25T09:43:42.061Z,31.73
2019-01-25T09:47:43.945Z,32.73
2019-01-25T09:51:42.359Z,35.37
2019-01-25T09:55:40.802Z,31.13
2019-01-25T09:59:39.184Z,32.27
2019-01-25T10:03:37.795Z,33.40
2019-01-25T10:07:36.276Z,34.37
2019-01-25T10:11:40.094Z,34.97
2019-01-25T10:15:38.901Z,34.23
2019-01-25T10:19:37.259Z,33.20
2019-01-25T10:23:39.159Z,35.07
2019-01-25T10:27:36.029Z,33.90
2019-01-25T10:31:34.429Z,36.83
2019-01-25T10:35:33.126Z,36.30
2019-01-25T10:39:31.527Z,32.07
2019-01-25T10:43:29.934Z,37.77
2019-01-25T10:47:28.386Z,37.87
2019-01-25T10:51:26.752Z,34.30
2019-01-25T10:55:25.141Z,28.10
2019-01-25T10:59:24.215Z,36.80
2019-01-25T11:03:23.152Z,35.10
2019-01-25T11:07:24.222Z,42.13
2019-01-25T11:11:23.238Z,39.00
2019-01-25T11:15:23.400Z,32.80
2019-01-25T11:19:22.963Z,43.47
2019-01-25T11:23:21.683Z,41.17
2019-01-25T11:27:21.007Z,40.77
2019-01-25T11:31:19.446Z,30.60
2019-01-25T11:35:17.897Z,37.40
2019-01-25T11:39:16.432Z,36.80
2019-01-25T11:43:14.854Z,35.20
2019-01-25T11:47:13.235Z,36.53
2019-01-25T11:51:24.472Z,35.73
2019-01-25T11:55:25.638Z,32.60
2019-01-25T11:59:31.120Z,35.23
2019-01-25T12:03:29.558Z,27.23
2019-01-25T12:07:27.957Z,33.63
2019-01-25T12:11:27.052Z,31.10
2019-01-25T12:15:25.583Z,30.23
2019-01-25T12:19:42.531Z,31.10
2019-01-25T12:23:41.147Z,30.50
2019-01-25T12:27:39.798Z,26.70
2019-01-25T12:31:38.172Z,23.63
2019-01-25T12:35:56.691Z,24.93
2019-01-25T12:39:56.718Z,27.43
2019-01-25T12:43:55.116Z,25.70
2019-01-25T12:47:53.557Z,28.43
2019-01-25T12:51:52.010Z,30.23
2019-01-25T12:55:50.533Z,28.17
2019-01-25T12:59:49.306Z,25.60
2019-01-25T13:03:47.738Z,24.63
2019-01-25T13:07:46.109Z,20.43
2019-01-25T13:11:44.518Z,19.67
2019-01-25T13:15:42.911Z,23.60
2019-01-25T13:19:44.078Z,24.90
2019-01-25T13:23:43.497Z,21.67
2019-01-25T13:27:41.892Z,22.97
2019-01-25T13:31:41.823Z,22.37
2019-01-25T13:35:40.226Z,19.27
2019-01-25T13:39:38.611Z,20.87
2019-01-25T13:43:40.107Z,22.43
2019-01-25T13:47:38.552Z,19.67
2019-01-25T13:51:36.950Z,19.70
2019-01-25T13:55:35.375Z,18.57
2019-01-25T13:59:37.147Z,17.33
2019-01-25T14:03:35.514Z,21.37
2019-01-25T14:07:34.008Z,22.87
2019-01-25T14:11:32.626Z,21.07
2019-01-25T14:15:31.325Z,22.90
2019-01-25T14:19:30.021Z,21.60
2019-01-25T14:23:28.707Z,20.97
2019-01-25T14:27:28.690Z,19.23
2019-01-25T14:31:27.165Z,18.23
2019-01-25T14:39:41.626Z,18.80
2019-01-25T14:43:40.031Z,19.33
2019-01-25T14:47:40.120Z,20.07
2019-01-25T14:51:38.544Z,19.40
2019-01-25T14:55:36.970Z,21.10
2019-01-25T14:59:35.904Z,19.83
2019-01-25T15:03:34.286Z,18.93
2019-01-25T15:07:32.693Z,19.07
2019-01-25T15:11:31.497Z,18.80
2019-01-25T15:15:29.859Z,18.53
2019-01-25T15:19:34.242Z,19.47
2019-01-25T15:23:32.704Z,17.70
2019-01-25T15:27:31.241Z,17.57
2019-01-25T15:31:31.632Z,19.00
2019-01-25T15:35:30.308Z,18.27
2019-01-25T15:39:28.793Z,18.13
2019-01-25T15:43:30.859Z,16.97
2019-01-25T15:47:29.258Z,18.13
2019-01-25T15:51:27.961Z,17.07
2019-01-25T15:55:29.144Z,15.47
2019-01-25T15:59:27.901Z,17.33
2019-01-25T16:03:26.396Z,15.47
2019-01-25T16:07:24.809Z,15.37
2019-01-25T16:11:27.502Z,15.37
2019-01-25T16:15:28.325Z,15.40
2019-01-25T16:19:27.895Z,15.63
2019-01-25T16:23:26.426Z,15.20
2019-01-25T16:27:24.874Z,12.40
2019-01-25T16:31:27.799Z,13.77
2019-01-25T16:35:28.835Z,14.00
2019-01-25T16:39:32.017Z,14.07
2019-01-25T16:43:30.431Z,14.90
2019-01-25T16:47:28.876Z,14.50
2019-01-25T16:51:27.292Z,14.13
2019-01-25T16:55:25.806Z,14.50
2019-01-25T16:59:27.978Z,15.67
2019-01-25T17:03:28.596Z,15.43
2019-01-25T17:07:28.865Z,15.20
2019-01-25T17:11:27.290Z,13.83
2019-01-25T17:15:26.725Z,14.73
2019-01-25T17:19:25.306Z,10.23
2019-01-25T17:23:24.095Z,13.27
2019-01-25T17:27:22.510Z,13.63
2019-01-25T17:31:20.903Z,14.13
2019-01-25T17:35:19.465Z,14.77
2019-01-25T17:39:18.221Z,11.70
2019-01-25T17:43:16.620Z,11.80
2019-01-25T17:47:17.043Z,10.20
2019-01-25T17:51:15.553Z,11.60
2019-01-25T17:55:18.290Z,10.40
2019-01-25T17:59:24.640Z,9.53
2019-01-25T18:03:23.501Z,10.90
2019-01-25T18:07:21.881Z,15.63
2019-01-25T18:11:20.671Z,12.10
2019-01-25T18:15:19.901Z,12.03
2019-01-25T18:19:20.076Z,12.67
2019-01-25T18:23:18.584Z,12.83
2019-01-25T18:27:16.989Z,10.80
2019-01-25T18:31:21.594Z,10.93
2019-01-25T18:35:20.980Z,13.17
2019-01-25T18:39:19.776Z,11.13
2019-01-25T18:43:18.167Z,11.03
2019-01-25T18:47:16.586Z,10.50
2019-01-25T18:51:15.144Z,10.20
2019-01-25T18:55:22.752Z,11.30
2019-01-25T18:59:21.967Z,9.00
2019-01-25T19:03:20.330Z,8.73
2019-01-25T19:07:21.126Z,10.40
2019-01-25T19:11:19.544Z,10.03
2019-01-25T19:15:23.618Z,8.23
2019-01-25T19:19:22.037Z,10.23
2019-01-25T19:23:20.538Z,8.97
2019-01-25T19:27:19.169Z,10.07
2019-01-25T19:31:17.578Z,8.43
2019-01-25T19:35:15.994Z,9.67
2019-01-25T19:39:14.440Z,10.30
2019-01-25T19:43:13.228Z,9.57
2019-01-25T19:47:11.890Z,10.03
2019-01-25T19:51:10.357Z,6.90
2019-01-25T19:55:12.075Z,9.20
2019-01-25T19:59:10.471Z,9.07
2019-01-25T20:03:08.949Z,8.67
2019-01-25T20:07:07.772Z,8.20
2019-01-25T20:11:06.142Z,8.37
2019-01-25T20:15:07.725Z,9.33
2019-01-25T20:19:08.765Z,11.90
2019-01-25T20:23:08.580Z,9.77
2019-01-25T20:27:06.917Z,6.90
2019-01-25T20:31:05.306Z,9.27
2019-01-25T20:35:04.586Z,8.63
2019-01-25T20:39:04.636Z,8.63
2019-01-25T20:43:03.136Z,7.60
2019-01-25T20:47:01.529Z,8.20
2019-01-25T20:51:00.221Z,7.07
2019-01-25T20:54:58.554Z,6.77
2019-01-25T20:58:56.946Z,6.93
2019-01-25T21:02:56.980Z,7.93
2019-01-25T21:06:55.685Z,7.87
2019-01-25T21:10:54.382Z,6.20
2019-01-25T21:14:52.868Z,6.73
2019-01-25T21:18:51.257Z,6.83
2019-01-25T21:22:49.963Z,7.00
2019-01-25T21:26:48.444Z,7.13
2019-01-25T21:30:46.878Z,6.93
2019-01-25T21:34:45.249Z,7.07
2019-01-25T21:38:43.673Z,6.93
2019-01-25T21:42:44.333Z,6.53
2019-01-25T21:46:42.780Z,6.30
2019-01-25T21:50:43.533Z,5.80
2019-01-25T21:54:41.954Z,5.53
2019-01-25T21:58:40.340Z,6.37
2019-01-25T22:02:38.764Z,5.10
2019-01-25T22:06:39.924Z,4.93
2019-01-25T22:10:41.242Z,5.40
2019-01-25T22:14:39.669Z,4.53
2019-01-25T22:18:38.848Z,5.20
2019-01-25T22:22:41.432Z,4.90
2019-01-25T22:26:39.925Z,4.13
2019-01-25T22:30:38.336Z,4.00
2019-01-25T22:34:36.730Z,4.13
2019-01-25T22:38:35.151Z,5.80
2019-01-25T22:42:33.569Z,5.73
2019-01-25T22:46:31.988Z,5.90
2019-01-25T22:50:33.096Z,7.30
2019-01-25T22:54:31.579Z,7.27
2019-01-25T22:58:30.169Z,7.90
2019-01-25T23:02:28.819Z,7.47
2019-01-25T23:06:33.395Z,8.70
2019-01-25T23:10:32.199Z,7.83
2019-01-25T23:14:30.794Z,7.20
2019-01-25T23:18:29.133Z,9.00
2019-01-25T23:22:27.521Z,9.93
2019-01-25T23:26:25.923Z,11.90
2019-01-25T23:30:27.679Z,12.77
2019-01-25T23:34:26.066Z,13.77
2019-01-25T23:38:24.525Z,16.40
2019-01-25T23:42:26.489Z,14.17
2019-01-25T23:46:24.873Z,16.97
2019-01-25T23:50:26.235Z,13.90
2019-01-25T23:54:26.299Z,12.80
2019-01-25T23:58:24.697Z,16.00
